LL1B weather

Arad Airport
Arad, Southern District, Israel

Public forecast

Using degrees Celsius for public forecast. Weather courtesy of forecast.io.

METAR (pilot weather report)

Closest report is Ben Gurion International Airport, 49.4 nm (91.6 km) NNW. Retrieved 2019/07/22 17:20 UTC (18 seconds ago):

LLBG 221720Z 34006KT 9999 FEW020 28/23 Q1006 NOSIG

TAF (pilot weather forecast)

Closest forecast is Ben Gurion International Airport, 49.4 nm (91.6 km) NNW. Retrieved 2019/07/22 12:18 UTC (5 hours ago):

TAF LLBG 221111Z 2212/2312 30010KT CAVOK BECMG 2217/2219 VRB04KT BECMG 2220/2222 16005KT 9999 SCT017 BECMG 2306/2309 29010KT CAVOK TX31/2212Z TN23/2303Z